Time;durP1;ratioP1;P1;durP2;ratioP2;P2;SDS_P1;SDS_P2;PMS_P1;PMS_P2;Temp;Humidity;BMP_temperature;BMP_pressure;BME280_temperature;BME280_humidity;BME280_pressure;Samples;Min_cycle;Max_cycle;Signal;HPM_P1;HPM_P2
2022/02/28 00:00:35;;;;;;;9.95;4.80;;;;;;;-0.16;68.63;100175.50;5041826;28;20022;-71
2022/02/28 00:03:02;;;;;;;11.20;4.85;;;;;;;-0.35;69.01;100158.09;5016098;28;20072;-71
2022/02/28 00:05:28;;;;;;;8.80;4.70;;;;;;;-0.22;67.55;100166.13;5030608;28;20104;-71
2022/02/28 00:07:53;;;;;;;6.78;3.75;;;;;;;-0.12;67.18;100161.91;5045474;28;20091;-70
2022/02/28 00:10:19;;;;;;;7.88;4.07;;;;;;;-0.20;67.57;100166.03;5036069;28;20040;-71
2022/02/28 00:12:45;;;;;;;9.63;4.20;;;;;;;-0.23;68.54;100159.97;5028661;28;20025;-71
2022/02/28 00:15:12;;;;;;;9.02;4.90;;;;;;;-0.35;68.36;100160.75;5023002;28;20034;-69
2022/02/28 00:17:38;;;;;;;9.88;4.18;;;;;;;-0.36;68.30;100150.25;5042007;28;20029;-71
2022/02/28 00:20:06;;;;;;;10.60;4.32;;;;;;;-0.25;67.30;100151.22;5036511;28;20049;-70
2022/02/28 00:22:32;;;;;;;10.52;4.53;;;;;;;-0.13;68.23;100157.56;5037439;28;20036;-70
2022/02/28 00:24:58;;;;;;;12.10;4.82;;;;;;;-0.09;67.23;100155.53;5016575;28;20056;-71
2022/02/28 00:27:23;;;;;;;8.82;5.07;;;;;;;-0.05;67.18;100151.72;5031479;28;20102;-71
2022/02/28 00:29:48;;;;;;;10.55;5.07;;;;;;;-0.06;66.72;100155.31;5031004;28;20029;-71
2022/02/28 00:32:14;;;;;;;10.13;4.47;;;;;;;-0.07;66.93;100154.47;5033021;28;20025;-71
2022/02/28 00:34:39;;;;;;;9.52;4.13;;;;;;;-0.39;67.99;100142.44;5035133;28;20108;-71
2022/02/28 00:37:04;;;;;;;8.93;4.55;;;;;;;-0.51;69.25;100155.59;5036939;28;20080;-71
2022/02/28 00:39:30;;;;;;;10.40;4.15;;;;;;;-0.64;69.52;100152.03;5019833;28;20036;-71
2022/02/28 00:41:55;;;;;;;8.38;4.30;;;;;;;-0.58;70.10;100156.09;5032269;28;20021;-71
2022/02/28 00:44:20;;;;;;;8.38;4.30;;;;;;;-0.52;69.51;100153.91;5031369;28;20445;-70
2022/02/28 00:46:46;;;;;;;9.02;4.38;;;;;;;-0.45;68.91;100154.34;5036145;28;20037;-71
2022/02/28 00:49:11;;;;;;;8.15;3.92;;;;;;;-0.47;69.40;100138.50;5026245;28;20425;-71
2022/02/28 00:51:36;;;;;;;7.85;3.95;;;;;;;-0.37;68.81;100149.38;5027510;28;20026;-71
2022/02/28 00:54:08;;;;;;;8.63;5.10;;;;;;;-0.55;69.04;100129.31;5025078;28;20029;-71
2022/02/28 00:56:34;;;;;;;11.93;4.07;;;;;;;-0.26;68.30;100152.19;5009395;28;20095;-71
2022/02/28 00:58:59;;;;;;;8.82;4.65;;;;;;;-0.42;69.13;100130.19;5027882;28;20032;-71
2022/02/28 01:01:24;;;;;;;8.00;4.53;;;;;;;-0.54;69.53;100126.56;5027874;28;20031;-72
2022/02/28 01:03:50;;;;;;;11.13;4.13;;;;;;;-0.64;69.86;100138.75;5024353;28;20029;-71
2022/02/28 01:06:15;;;;;;;9.52;4.53;;;;;;;-0.69;70.25;100135.53;5027867;28;20041;-71
2022/02/28 01:08:40;;;;;;;8.93;4.78;;;;;;;-0.67;70.38;100161.03;5026431;28;20516;-72
2022/02/28 01:11:07;;;;;;;9.02;4.75;;;;;;;-0.65;70.65;100157.47;5010724;28;20040;-72
2022/02/28 01:13:32;;;;;;;9.85;4.72;;;;;;;-0.72;70.63;100152.50;5022299;28;20105;-72
2022/02/28 01:15:57;;;;;;;9.75;4.43;;;;;;;-0.75;71.46;100152.72;5028321;28;20085;-70
2022/02/28 01:18:23;;;;;;;10.60;5.18;;;;;;;-0.96;72.20;100148.78;5023466;28;20057;-71
2022/02/28 01:20:51;;;;;;;8.45;4.32;;;;;;;-0.97;73.13;100157.66;5022111;28;20029;-72
2022/02/28 01:23:17;;;;;;;9.40;4.65;;;;;;;-1.01;73.57;100158.84;5005280;28;20029;-71
2022/02/28 01:25:42;;;;;;;10.10;4.50;;;;;;;-1.18;74.67;100152.78;5024349;28;20041;-71
2022/02/28 01:28:08;;;;;;;8.20;4.82;;;;;;;-1.33;76.03;100148.41;5023753;28;20041;-72
2022/02/28 01:30:33;;;;;;;9.25;4.70;;;;;;;-1.39;76.98;100146.13;5027306;28;20155;-70
2022/02/28 01:32:58;;;;;;;9.23;5.03;;;;;;;-1.38;77.08;100139.88;5025153;28;20037;-71
2022/02/28 01:35:24;;;;;;;7.53;4.32;;;;;;;-1.54;77.20;100126.69;5021892;28;20029;-71
2022/02/28 01:37:49;;;;;;;8.93;4.63;;;;;;;-1.51;77.32;100145.09;5005448;28;20120;-71
2022/02/28 01:40:15;;;;;;;10.35;5.10;;;;;;;-1.40;78.14;100139.13;5026657;28;20033;-70
2022/02/28 01:42:41;;;;;;;9.38;4.82;;;;;;;-1.01;73.15;100140.25;5032156;28;20462;-71
2022/02/28 01:45:15;;;;;;;10.18;5.07;;;;;;;-0.45;69.24;100127.75;5012316;28;20026;-71
2022/02/28 01:47:41;;;;;;;10.13;5.05;;;;;;;-0.18;68.06;100118.91;5023563;28;20025;-70
2022/02/28 01:50:07;;;;;;;8.38;4.70;;;;;;;-0.28;69.63;100124.84;5009446;28;20078;-71
2022/02/28 01:52:33;;;;;;;9.02;4.65;;;;;;;-0.57;70.55;100128.56;5029434;28;20033;-72
2022/02/28 01:54:58;;;;;;;10.93;4.88;;;;;;;-0.81;70.50;100115.91;5028164;28;20040;-72
2022/02/28 01:57:23;;;;;;;9.27;4.65;;;;;;;-0.34;67.98;100113.75;5027781;28;20056;-72
2022/02/28 01:59:50;;;;;;;10.63;5.10;;;;;;;-0.07;67.44;100132.34;5026114;28;20036;-71
2022/02/28 02:02:16;;;;;;;14.15;5.63;;;;;;;0.06;66.77;100133.22;5025592;28;20108;-71
2022/02/28 02:04:41;;;;;;;10.45;5.18;;;;;;;-0.01;67.20;100132.78;5026580;28;20167;-71
2022/02/28 02:07:08;;;;;;;8.18;4.60;;;;;;;0.01;66.90;100134.50;5026032;28;20497;-72
2022/02/28 02:09:34;;;;;;;8.32;4.80;;;;;;;-0.19;67.74;100122.53;5028568;28;20086;-70
2022/02/28 02:12:01;;;;;;;9.98;5.22;;;;;;;-0.09;66.93;100113.81;5028670;28;20034;-70
2022/02/28 02:14:27;;;;;;;8.93;4.53;;;;;;;0.52;64.26;100127.41;5026911;28;20033;-71
2022/02/28 02:16:52;;;;;;;11.63;5.63;;;;;;;0.12;66.58;100139.94;5026416;28;20108;-70
2022/02/28 02:19:18;;;;;;;10.30;4.88;;;;;;;-0.26;68.83;100116.78;5026108;28;20022;-71
2022/02/28 02:21:43;;;;;;;12.13;4.82;;;;;;;-0.52;69.54;100142.41;5025329;28;20036;-71
2022/02/28 02:24:09;;;;;;;11.38;5.25;;;;;;;-0.68;69.90;100135.44;5024105;28;20030;-71
2022/02/28 02:26:35;;;;;;;9.98;5.32;;;;;;;-0.70;69.01;100128.50;5023742;28;20133;-71
2022/02/28 02:29:00;;;;;;;8.30;4.95;;;;;;;-0.67;70.42;100137.13;5005306;28;20131;-71
2022/02/28 02:31:26;;;;;;;9.23;5.18;;;;;;;-0.70;69.80;100134.66;5023027;28;20167;-70
2022/02/28 02:33:52;;;;;;;10.93;5.05;;;;;;;-0.79;70.31;100129.94;5025397;28;20416;-71
2022/02/28 02:36:20;;;;;;;9.73;5.20;;;;;;;-0.73;70.43;100137.53;5024103;28;20037;-71
2022/02/28 02:38:46;;;;;;;10.73;4.25;;;;;;;-0.73;69.33;100126.91;5008684;28;20033;-71
2022/02/28 02:41:11;;;;;;;10.40;5.43;;;;;;;-0.77;70.75;100125.38;5023289;28;20036;-71
2022/02/28 02:43:37;;;;;;;14.07;5.40;;;;;;;-0.90;70.46;100121.81;5022853;28;20022;-71
2022/02/28 02:46:03;;;;;;;11.65;5.28;;;;;;;-0.97;71.20;100121.38;5024296;28;20037;-69
2022/02/28 02:48:29;;;;;;;11.07;5.38;;;;;;;-0.95;71.33;100123.91;5020921;28;20141;-71
2022/02/28 02:50:55;;;;;;;9.52;4.80;;;;;;;-0.93;70.52;100133.47;5011336;28;20083;-70
2022/02/28 02:53:20;;;;;;;10.35;5.15;;;;;;;-0.81;70.35;100115.03;5020090;28;20072;-70
2022/02/28 02:55:47;;;;;;;13.32;5.25;;;;;;;-0.83;70.65;100125.78;5023230;28;20025;-71
2022/02/28 02:58:13;;;;;;;11.50;5.47;;;;;;;-1.02;72.97;100133.19;5020713;28;20484;-71
2022/02/28 03:00:47;;;;;;;9.10;4.85;;;;;;;-1.18;74.03;100138.63;5009790;28;20025;-71
2022/02/28 03:05:40;;;;;;;12.15;5.38;;;;;;;-1.57;77.42;100126.88;4987313;28;20409;-71
2022/02/28 03:08:05;;;;;;;10.75;5.10;;;;;;;-1.85;78.39;100093.22;4973214;28;20030;-70
2022/02/28 03:10:31;;;;;;;10.27;5.10;;;;;;;-1.72;78.54;100128.66;4991297;28;20113;-72
2022/02/28 03:12:56;;;;;;;11.23;5.50;;;;;;;-1.75;78.86;100142.13;4991221;28;20064;-71
2022/02/28 03:15:22;;;;;;;10.68;5.50;;;;;;;-1.69;79.14;100140.91;4991240;28;20049;-71
2022/02/28 03:17:47;;;;;;;11.40;5.68;;;;;;;-1.57;77.88;100135.69;4987303;28;20035;-71
2022/02/28 03:20:13;;;;;;;12.77;5.47;;;;;;;-1.87;77.32;100080.03;4991248;28;20030;-72
2022/02/28 03:22:38;;;;;;;12.93;5.88;;;;;;;-1.22;74.49;100137.97;4990209;28;20018;-71
2022/02/28 03:25:04;;;;;;;11.77;5.13;;;;;;;-1.08;72.53;100133.59;4991216;28;20466;-72
2022/02/28 03:27:33;;;;;;;11.25;5.72;;;;;;;-0.86;72.76;100144.59;4991464;28;20089;-71
2022/02/28 03:29:58;;;;;;;10.77;6.07;;;;;;;-0.99;72.91;100152.47;4987144;28;20409;-72
2022/02/28 03:32:24;;;;;;;12.18;6.20;;;;;;;-1.00;73.58;100147.25;4990187;28;20030;-71
2022/02/28 03:34:49;;;;;;;10.50;5.38;;;;;;;-1.17;73.96;100130.56;4989090;28;20142;-71
2022/02/28 03:37:14;;;;;;;12.77;6.18;;;;;;;-1.24;74.67;100144.31;4991526;28;20088;-72
2022/02/28 03:39:39;;;;;;;13.05;6.32;;;;;;;-1.37;75.86;100128.31;4973681;28;20184;-71
2022/02/28 03:42:05;;;;;;;11.18;6.25;;;;;;;-1.53;77.54;100139.00;4969458;28;20746;-71
2022/02/28 03:44:30;;;;;;;12.25;5.40;;;;;;;-1.78;78.12;100140.50;4989311;28;20041;-71
2022/02/28 03:46:56;;;;;;;11.65;5.80;;;;;;;-1.96;79.59;100135.44;4987541;28;20105;-71
2022/02/28 03:49:21;;;;;;;11.07;5.85;;;;;;;-2.11;80.39;100116.84;4988896;28;20030;-73
2022/02/28 03:51:46;;;;;;;12.45;5.90;;;;;;;-2.13;80.85;100150.53;4970664;28;20026;-72
2022/02/28 03:54:13;;;;;;;12.75;6.25;;;;;;;-2.00;80.47;100138.25;4988865;28;20046;-71
2022/02/28 03:56:40;;;;;;;11.20;5.40;;;;;;;-2.19;80.55;100134.16;4988005;28;20125;-72
2022/02/28 03:59:06;;;;;;;14.85;5.82;;;;;;;-2.27;81.10;100132.78;4988768;28;20053;-72
2022/02/28 04:01:31;;;;;;;14.25;6.00;;;;;;;-2.25;80.96;100156.56;4991463;28;20030;-72
2022/02/28 04:03:56;;;;;;;14.02;5.55;;;;;;;-2.29;81.68;100147.06;4989313;28;20034;-72
2022/02/28 04:06:23;;;;;;;11.32;5.38;;;;;;;-2.47;81.05;100122.47;4990941;28;20054;-77
2022/02/28 04:08:48;;;;;;;12.68;6.20;;;;;;;-2.55;80.25;100079.69;4988786;28;20022;-77
2022/02/28 04:11:13;;;;;;;11.95;5.88;;;;;;;-2.23;80.48;100125.50;4976324;28;20500;-77
2022/02/28 04:13:38;;;;;;;14.98;6.15;;;;;;;-2.37;79.64;100096.31;4976883;28;20030;-77
2022/02/28 04:16:04;;;;;;;13.05;6.50;;;;;;;-2.19;78.71;100103.19;4979671;28;20026;-77
2022/02/28 04:18:29;;;;;;;12.75;6.13;;;;;;;-2.00;76.47;100103.78;4983940;28;20126;-73
2022/02/28 04:20:55;;;;;;;12.50;5.97;;;;;;;-1.71;75.76;100132.16;4980332;28;20607;-75
2022/02/28 04:23:20;;;;;;;12.10;5.72;;;;;;;-1.81;75.56;100100.03;4999704;28;20363;-75
2022/02/28 04:25:46;;;;;;;10.50;5.47;;;;;;;-1.99;75.37;100089.59;4981619;28;20501;-76
2022/02/28 04:28:11;;;;;;;11.25;5.68;;;;;;;-1.81;75.67;100107.97;4977613;28;20049;-75
2022/02/28 04:30:36;;;;;;;11.15;5.68;;;;;;;-1.73;74.45;100108.38;4998629;28;20397;-76
2022/02/28 04:33:02;;;;;;;12.65;5.68;;;;;;;-1.59;74.74;100113.72;4981804;28;20036;-77
2022/02/28 04:35:27;;;;;;;13.50;5.53;;;;;;;-1.46;74.87;100135.03;4979153;28;20034;-75
2022/02/28 04:37:52;;;;;;;8.00;4.55;;;;;;;-1.62;74.00;100097.97;4999554;28;20030;-76
2022/02/28 04:40:18;;;;;;;12.27;5.68;;;;;;;-1.67;73.46;100073.53;4977346;28;20033;-76
2022/02/28 04:42:43;;;;;;;9.38;5.22;;;;;;;-1.42;73.50;100131.22;4981625;28;20053;-76
2022/02/28 04:45:09;;;;;;;14.45;6.07;;;;;;;-1.81;74.39;100069.06;4993983;28;20026;-75
2022/02/28 04:47:35;;;;;;;12.43;6.00;;;;;;;-1.68;74.35;100114.25;4998571;28;20022;-77
2022/02/28 04:50:00;;;;;;;12.85;6.13;;;;;;;-1.90;75.03;100077.56;4983612;28;20033;-77
2022/02/28 04:52:25;;;;;;;12.75;5.70;;;;;;;-1.48;74.87;100136.09;4982863;28;20025;-75
2022/02/28 04:54:51;;;;;;;11.75;5.70;;;;;;;-1.64;73.93;100115.78;4991919;28;20038;-75
2022/02/28 04:57:16;;;;;;;14.85;5.93;;;;;;;-1.79;74.06;100096.34;4981134;28;20072;-74
2022/02/28 04:59:43;;;;;;;12.20;5.75;;;;;;;-1.66;74.58;100140.69;4990700;28;20565;-77
2022/02/28 05:02:08;;;;;;;11.18;5.47;;;;;;;-1.91;74.51;100104.19;4995446;28;20109;-75
2022/02/28 05:04:33;;;;;;;11.18;5.25;;;;;;;-1.66;75.09;100149.50;4993390;28;20069;-75
2022/02/28 05:06:58;;;;;;;12.38;5.95;;;;;;;-1.51;73.80;100147.75;4991376;28;20513;-70
2022/02/28 05:09:28;;;;;;;13.63;6.13;;;;;;;-1.49;73.86;100140.53;4994071;28;20034;-75
2022/02/28 05:11:53;;;;;;;;;;;;;;;-1.18;72.10;100152.78;5009857;28;20026;-75
2022/02/28 05:14:18;;;;;;;11.07;5.30;;;;;;;-1.13;71.69;100121.47;5016000;28;19928;-75
2022/02/28 05:16:44;;;;;;;11.90;6.00;;;;;;;-1.22;71.52;100127.34;5013589;28;20029;-73
2022/02/28 05:19:10;;;;;;;12.95;5.80;;;;;;;-1.21;71.58;100129.06;5011929;28;20022;-72
2022/02/28 05:21:36;;;;;;;11.80;5.85;;;;;;;-1.07;71.26;100145.91;5012320;28;20029;-72
2022/02/28 05:24:02;;;;;;;12.57;5.75;;;;;;;-1.13;71.65;100148.03;5013610;28;20041;-74
2022/02/28 05:26:27;;;;;;;12.48;5.93;;;;;;;-1.33;71.89;100130.69;4981568;28;20105;-73
2022/02/28 05:28:53;;;;;;;11.77;5.93;;;;;;;-1.51;72.86;100133.63;4987474;28;20058;-74
2022/02/28 05:31:18;;;;;;;14.02;6.30;;;;;;;-1.55;73.91;100157.69;4979120;28;20034;-68
2022/02/28 05:33:43;;;;;;;14.65;6.20;;;;;;;-1.68;74.17;100155.84;4974391;28;20030;-76
2022/02/28 05:36:09;;;;;;;11.80;6.53;;;;;;;-1.75;74.61;100152.72;4985855;28;20113;-77
2022/02/28 05:38:34;;;;;;;14.05;7.00;;;;;;;-1.59;74.03;100145.56;4970979;28;20085;-75
2022/02/28 05:41:00;;;;;;;15.50;7.13;;;;;;;-1.73;73.85;100153.47;4977547;28;20034;-73
2022/02/28 05:43:26;;;;;;;14.90;6.47;;;;;;;-2.10;74.31;100097.31;4993367;28;20045;-74
2022/02/28 05:45:51;;;;;;;13.63;6.43;;;;;;;-1.76;73.45;100121.81;4974785;28;20023;-74
2022/02/28 05:48:16;;;;;;;16.25;6.18;;;;;;;-1.82;74.16;100138.97;4992790;28;20037;-73
2022/02/28 05:50:42;;;;;;;17.10;6.40;;;;;;;-1.87;74.63;100146.34;4993023;28;20037;-73
2022/02/28 05:53:07;;;;;;;12.52;6.07;;;;;;;-2.00;74.85;100154.16;4980628;28;20113;-72
2022/02/28 05:55:34;;;;;;;15.02;6.18;;;;;;;-1.87;75.46;100166.72;4992234;28;20402;-71
2022/02/28 05:57:59;;;;;;;14.00;6.82;;;;;;;-2.14;75.91;100148.84;4989497;28;20041;-73
2022/02/28 06:00:25;;;;;;;17.80;6.85;;;;;;;-2.09;76.21;100178.59;4971345;28;20038;-66
2022/02/28 06:02:51;;;;;;;13.88;6.38;;;;;;;-2.42;77.37;100161.00;4993159;28;20027;-74
2022/02/28 06:05:17;;;;;;;14.15;6.75;;;;;;;-2.61;78.01;100133.03;4994581;28;20025;-73
2022/02/28 06:07:42;;;;;;;15.55;6.95;;;;;;;-2.46;77.98;100179.84;4975755;28;20022;-75
2022/02/28 06:10:08;;;;;;;14.00;6.97;;;;;;;-2.47;78.52;100178.97;4976979;28;20494;-74
2022/02/28 06:12:33;;;;;;;17.25;7.75;;;;;;;-2.54;79.01;100167.03;4975442;28;20022;-75
2022/02/28 06:14:59;;;;;;;16.05;7.65;;;;;;;-2.50;79.18;100155.31;4969647;28;20081;-75
2022/02/28 06:17:24;;;;;;;14.23;6.75;;;;;;;-2.44;79.37;100172.66;4969802;28;20085;-74
2022/02/28 06:19:50;;;;;;;12.05;6.40;;;;;;;-2.33;78.92;100191.47;4976281;28;20117;-72
2022/02/28 06:22:16;;;;;;;15.07;7.30;;;;;;;-2.58;77.85;100160.19;4972959;28;20026;-70
2022/02/28 06:24:41;;;;;;;13.05;6.60;;;;;;;-2.39;78.18;100188.28;4991590;28;20556;-70
2022/02/28 06:27:06;;;;;;;13.45;5.95;;;;;;;-2.20;78.15;100199.56;4991696;28;20057;-69
2022/02/28 06:29:32;;;;;;;12.82;6.47;;;;;;;-2.13;77.13;100194.75;4987037;28;20030;-66
2022/02/28 06:31:57;;;;;;;12.32;6.22;;;;;;;-1.99;76.74;100190.38;4989758;28;20029;-67
2022/02/28 06:34:22;;;;;;;15.52;6.38;;;;;;;-2.32;76.94;100134.00;4999373;28;20018;-76
2022/02/28 06:36:48;;;;;;;15.77;6.13;;;;;;;-1.19;75.58;100200.66;5002636;28;20026;-69
2022/02/28 06:39:14;;;;;;;15.60;6.95;;;;;;;0.88;66.01;100155.09;4994292;28;20136;-75
2022/02/28 06:41:39;;;;;;;13.75;5.53;;;;;;;3.19;58.90;100163.50;4978514;28;20034;-76
2022/02/28 06:44:07;;;;;;;12.43;5.18;;;;;;;5.00;53.32;100176.97;4992312;28;20030;-83
2022/02/28 06:46:33;;;;;;;14.02;6.63;;;;;;;6.00;48.99;100178.84;4970638;28;20035;-76
2022/02/28 06:48:58;;;;;;;9.20;5.50;;;;;;;7.12;47.17;100181.81;4985331;28;20026;-78
2022/02/28 06:51:23;;;;;;;10.23;5.97;;;;;;;7.49;45.48;100152.16;4988240;28;20026;-69
2022/02/28 06:53:49;;;;;;;13.48;5.75;;;;;;;8.48;41.97;100170.19;4991750;28;20019;-73
2022/02/28 06:56:14;;;;;;;11.45;5.35;;;;;;;9.56;39.97;100179.63;4984513;28;22248;-74
2022/02/28 06:58:40;;;;;;;12.57;5.72;;;;;;;10.01;38.83;100181.13;4973108;28;20030;-75
2022/02/28 07:01:06;;;;;;;10.88;5.85;;;;;;;10.57;38.35;100188.63;4988600;28;20064;-72
2022/02/28 07:03:32;;;;;;;11.90;5.97;;;;;;;11.16;35.53;100171.13;4985956;28;20030;-75
2022/02/28 07:05:58;;;;;;;12.13;5.72;;;;;;;11.09;35.63;100163.88;4986050;28;20034;-76
2022/02/28 07:08:25;;;;;;;11.65;6.07;;;;;;;11.68;35.09;100158.03;4969281;28;20092;-77
2022/02/28 07:10:51;;;;;;;12.95;6.05;;;;;;;11.33;34.33;100160.22;4989243;28;20894;-71
2022/02/28 07:13:17;;;;;;;16.17;7.22;;;;;;;11.36;35.35;100182.41;4990774;28;20018;-69
2022/02/28 07:15:44;;;;;;;10.35;6.55;;;;;;;11.74;34.30;100195.31;4987751;28;20044;-68
2022/02/28 07:18:11;;;;;;;12.18;7.03;;;;;;;12.71;33.12;100180.25;4988046;28;20571;-70
2022/02/28 07:20:36;;;;;;;10.98;6.72;;;;;;;13.62;32.04;100180.13;4987731;28;20042;-68
2022/02/28 07:23:02;;;;;;;10.38;6.50;;;;;;;13.67;31.38;100185.84;4988308;28;20579;-68
2022/02/28 07:25:28;;;;;;;14.45;6.57;;;;;;;13.34;31.92;100177.28;4988141;28;20033;-68
2022/02/28 07:27:53;;;;;;;12.40;6.68;;;;;;;13.23;31.85;100194.88;4986782;28;20117;-69
2022/02/28 07:30:18;;;;;;;10.77;6.60;;;;;;;13.25;32.26;100164.75;4991380;28;20561;-71
2022/02/28 07:32:44;;;;;;;10.77;6.35;;;;;;;14.02;31.09;100191.53;4992464;28;20069;-69
2022/02/28 07:35:10;;;;;;;9.80;6.50;;;;;;;13.39;31.58;100166.69;4992121;28;20084;-71
2022/02/28 07:37:35;;;;;;;8.95;6.55;;;;;;;13.70;31.75;100184.63;4992407;28;20042;-69
2022/02/28 07:40:03;;;;;;;13.65;7.80;;;;;;;12.87;32.12;100179.25;4987000;28;20022;-69
2022/02/28 07:42:28;;;;;;;13.27;7.07;;;;;;;13.59;31.20;100196.84;4992113;28;20033;-67
2022/02/28 07:44:53;;;;;;;11.32;6.78;;;;;;;13.56;30.28;100189.06;4992972;28;20026;-78
2022/02/28 07:47:18;;;;;;;15.77;8.07;;;;;;;13.61;30.83;100183.91;4994542;28;20108;-72
2022/02/28 07:49:44;;;;;;;14.07;6.63;;;;;;;14.34;30.26;100175.75;4993596;28;20386;-72
2022/02/28 07:52:09;;;;;;;11.70;6.80;;;;;;;15.01;28.55;100164.41;4992555;28;20030;-72
2022/02/28 07:54:35;;;;;;;10.75;6.10;;;;;;;16.77;27.32;100181.06;4991010;28;20074;-72
2022/02/28 07:57:00;;;;;;;10.02;6.10;;;;;;;16.70;27.02;100152.84;4993244;28;20089;-72
2022/02/28 07:59:25;;;;;;;13.07;7.10;;;;;;;17.25;26.28;100177.22;4991412;28;21503;-72
2022/02/28 08:01:51;;;;;;;10.20;6.75;;;;;;;18.09;25.83;100186.44;4991665;28;20154;-73
2022/02/28 08:04:16;;;;;;;9.02;6.05;;;;;;;18.58;24.44;100182.13;4987072;28;20391;-73
2022/02/28 08:06:41;;;;;;;10.07;5.57;;;;;;;19.55;24.21;100174.31;4992618;28;20029;-74
2022/02/28 08:09:08;;;;;;;8.90;5.88;;;;;;;19.15;23.56;100180.22;4993431;28;20034;-75
2022/02/28 08:11:33;;;;;;;11.30;6.70;;;;;;;19.43;23.26;100173.38;4991430;28;20018;-75
2022/02/28 08:13:58;;;;;;;10.18;6.88;;;;;;;20.02;23.62;100188.34;4986479;28;20504;-74
2022/02/28 08:16:23;;;;;;;12.80;7.22;;;;;;;20.21;23.58;100186.38;4976177;28;20031;-77
2022/02/28 08:18:49;;;;;;;13.25;8.25;;;;;;;18.79;24.09;100173.56;4992587;28;20743;-77
2022/02/28 08:21:14;;;;;;;11.32;8.05;;;;;;;18.78;24.50;100166.38;4991399;28;20072;-75
2022/02/28 08:23:41;;;;;;;12.52;7.00;;;;;;;18.85;24.87;100195.66;4982154;28;20371;-76
2022/02/28 08:26:07;;;;;;;11.18;6.90;;;;;;;18.30;25.66;100204.44;4976365;28;20110;-75
2022/02/28 08:28:33;;;;;;;9.73;6.85;;;;;;;19.56;24.60;100194.34;4973728;28;20057;-74
2022/02/28 08:30:58;;;;;;;11.70;6.90;;;;;;;19.54;24.11;100197.31;4971189;28;20042;-70
2022/02/28 08:33:23;;;;;;;11.77;6.43;;;;;;;19.59;23.84;100211.19;4990277;28;20462;-70
2022/02/28 08:35:49;;;;;;;10.90;6.70;;;;;;;20.61;23.12;100205.06;4991855;28;20093;-71
2022/02/28 08:38:17;;;;;;;11.23;6.88;;;;;;;20.14;23.11;100211.19;4991312;28;20023;-68
2022/02/28 08:40:43;;;;;;;12.23;6.78;;;;;;;20.87;22.83;100205.72;4989545;28;20033;-71
2022/02/28 08:43:08;;;;;;;11.43;6.35;;;;;;;21.55;21.88;100196.91;4991387;28;20492;-69
2022/02/28 08:45:33;;;;;;;9.10;6.70;;;;;;;20.93;22.14;100213.03;4990380;28;20026;-70
2022/02/28 08:47:59;;;;;;;10.88;7.05;;;;;;;21.03;22.10;100205.03;4990192;28;20112;-68
2022/02/28 08:50:25;;;;;;;8.75;6.50;;;;;;;20.09;23.35;100188.22;4988835;28;20029;-71
2022/02/28 08:52:50;;;;;;;12.20;6.70;;;;;;;20.43;22.87;100199.59;4992801;28;20471;-70
2022/02/28 08:55:16;;;;;;;11.02;7.25;;;;;;;19.66;23.60;100192.78;4987971;28;20050;-69
2022/02/28 08:57:42;;;;;;;10.57;6.07;;;;;;;19.63;24.05;100195.97;4974882;28;20026;-73
2022/02/28 09:00:09;;;;;;;12.82;6.82;;;;;;;19.49;23.57;100200.75;4971519;28;20029;-70
2022/02/28 09:02:35;;;;;;;9.77;6.97;;;;;;;21.03;22.39;100202.28;4994058;28;20026;-66
2022/02/28 09:05:01;;;;;;;10.30;6.78;;;;;;;20.34;22.21;100208.19;4990457;28;20028;-66
2022/02/28 09:07:26;;;;;;;10.52;7.03;;;;;;;20.41;22.67;100219.09;4989907;28;20038;-64
2022/02/28 09:09:52;;;;;;;8.88;6.70;;;;;;;20.58;22.35;100208.28;4990638;28;20485;-66
2022/02/28 09:12:17;;;;;;;9.73;6.55;;;;;;;19.93;22.20;100208.94;4990508;28;20087;-70
2022/02/28 09:14:42;;;;;;;10.85;6.32;;;;;;;19.61;22.52;100216.47;4973340;28;20478;-68
2022/02/28 09:17:08;;;;;;;11.70;7.85;;;;;;;18.87;23.29;100224.56;4987573;28;20088;-69
2022/02/28 09:19:33;;;;;;;12.43;7.50;;;;;;;18.87;23.90;100219.06;4972189;28;20080;-72
2022/02/28 09:21:59;;;;;;;9.32;7.10;;;;;;;19.55;23.09;100200.91;4973224;28;20026;-74
2022/02/28 09:24:28;;;;;;;10.23;7.35;;;;;;;17.53;24.78;100196.13;4990733;28;20482;-68
2022/02/28 09:26:53;;;;;;;9.93;7.20;;;;;;;17.62;24.48;100208.50;4991258;28;20026;-66
2022/02/28 09:29:18;;;;;;;9.40;6.82;;;;;;;18.74;23.11;100203.53;4982785;28;20034;-72
2022/02/28 09:31:44;;;;;;;12.07;7.03;;;;;;;18.87;22.96;100213.59;4971085;28;20037;-69
2022/02/28 09:34:09;;;;;;;12.20;7.28;;;;;;;18.07;23.59;100200.34;4991098;28;20457;-69
2022/02/28 09:36:35;;;;;;;12.32;7.93;;;;;;;18.72;23.35;100193.84;4971732;28;20022;-73
2022/02/28 09:39:01;;;;;;;12.02;7.43;;;;;;;18.96;22.88;100182.06;4989610;28;20057;-70
2022/02/28 09:41:28;;;;;;;12.65;7.68;;;;;;;18.39;23.33;100183.94;4990565;28;20478;-71
2022/02/28 09:43:54;;;;;;;12.30;7.25;;;;;;;17.67;24.68;100200.47;4989949;28;20025;-72
2022/02/28 09:46:19;;;;;;;10.75;7.32;;;;;;;18.82;23.53;100192.31;4970463;28;20026;-73
2022/02/28 09:48:46;;;;;;;11.90;8.18;;;;;;;19.11;22.11;100181.72;4990413;28;20028;-71
2022/02/28 09:51:11;;;;;;;9.40;6.68;;;;;;;19.82;21.66;100201.47;4990236;28;20030;-64
2022/02/28 09:53:37;;;;;;;10.88;7.25;;;;;;;19.70;21.50;100195.88;4987719;28;20069;-67
2022/02/28 09:56:02;;;;;;;11.23;7.20;;;;;;;19.53;21.58;100200.31;4973280;28;20605;-74
2022/02/28 09:58:32;;;;;;;11.35;7.55;;;;;;;18.84;22.26;100211.28;4989883;28;20072;-71
2022/02/28 10:00:59;;;;;;;10.55;7.10;;;;;;;19.67;21.80;100186.22;4989781;28;20061;-72
2022/02/28 10:03:25;;;;;;;12.15;7.45;;;;;;;19.64;21.52;100180.31;4987947;28;20430;-72
2022/02/28 10:05:58;;;;;;;11.32;7.00;;;;;;;18.55;23.05;100196.28;4966973;28;20117;-70
2022/02/28 10:08:24;;;;;;;12.32;7.60;;;;;;;17.89;23.86;100206.56;4972216;28;20022;-72
2022/02/28 10:10:49;;;;;;;12.30;7.88;;;;;;;17.69;24.69;100187.44;4986858;28;20026;-70
2022/02/28 10:13:24;;;;;;;10.70;7.43;;;;;;;18.86;22.80;100184.47;4990140;28;20031;-67
2022/02/28 10:15:50;;;;;;;12.55;7.60;;;;;;;16.62;24.63;100188.59;4986948;28;20030;-74
2022/02/28 10:18:15;;;;;;;11.85;7.65;;;;;;;18.02;23.78;100200.16;4986649;28;20057;-73
2022/02/28 10:20:42;;;;;;;14.38;8.05;;;;;;;17.26;24.55;100201.63;4976531;28;20026;-70
2022/02/28 10:23:09;;;;;;;11.52;7.60;;;;;;;18.05;24.25;100199.75;4985511;28;20032;-70
2022/02/28 10:25:35;;;;;;;13.02;7.90;;;;;;;18.74;23.20;100203.53;4989037;28;20062;-71
2022/02/28 10:28:23;;;;;;;14.73;7.60;;;;;;;18.12;24.09;100200.53;4972921;28;20053;-70
2022/02/28 10:31:03;;;;;;;13.75;8.05;;;;;;;18.71;23.26;100200.41;4984735;28;20053;-67
2022/02/28 10:33:32;;;;;;;10.82;7.55;;;;;;;19.21;23.22;100198.50;4978970;28;20019;-70
2022/02/28 10:36:10;;;;;;;;;;;;;;;18.12;24.07;100194.22;4987551;28;20066;-70
2022/02/28 10:38:41;;;;;;;10.55;6.90;;;;;;;17.21;25.29;100176.84;4970323;28;19918;-70
2022/02/28 10:41:15;;;;;;;11.45;7.57;;;;;;;18.51;22.72;100195.03;4975260;28;20038;-68
2022/02/28 10:43:41;;;;;;;11.73;7.45;;;;;;;17.71;24.06;100193.53;4970609;28;20082;-70
2022/02/28 10:46:20;;;;;;;11.18;7.38;;;;;;;15.42;26.59;100192.78;4988398;28;20030;-68
2022/02/28 10:48:55;;;;;;;12.77;7.47;;;;;;;16.73;25.68;100181.66;4970760;28;20037;-71
2022/02/28 10:51:20;;;;;;;15.48;7.28;;;;;;;17.49;24.70;100181.16;4987458;28;20034;-70
2022/02/28 10:53:45;;;;;;;14.10;8.18;;;;;;;18.09;23.21;100157.16;4987499;28;20081;-71
2022/02/28 10:56:11;;;;;;;11.68;7.53;;;;;;;17.57;23.97;100161.78;4992019;28;20026;-68
2022/02/28 10:58:36;;;;;;;13.52;7.50;;;;;;;18.07;24.31;100152.94;4993943;28;20477;-69
2022/02/28 11:01:04;;;;;;;10.65;7.60;;;;;;;18.96;22.75;100173.81;4992395;28;20037;-69
2022/02/28 11:03:51;;;;;;;12.23;7.63;;;;;;;18.40;23.42;100163.72;4993333;28;20061;-67
2022/02/28 11:06:22;;;;;;;11.13;7.20;;;;;;;19.04;23.59;100159.81;4994854;28;20105;-66
2022/02/28 11:08:47;;;;;;;10.45;7.28;;;;;;;19.12;23.04;100164.19;4996034;28;20037;-65
2022/02/28 11:11:15;;;;;;;11.20;7.65;;;;;;;18.68;23.56;100137.75;4996193;28;20030;-69
2022/02/28 11:13:41;;;;;;;12.82;7.32;;;;;;;19.31;22.77;100154.09;4990786;28;20501;-71
2022/02/28 11:16:09;;;;;;;8.95;7.25;;;;;;;20.63;21.73;100142.44;4976375;28;20030;-76